Time;durP1;ratioP1;P1;durP2;ratioP2;P2;SDS_P1;SDS_P2;PMS_P1;PMS_P2;Temp;Humidity;BMP_temperature;BMP_pressure;BME280_temperature;BME280_humidity;BME280_pressure;Samples;Min_cycle;Max_cycle;Signal;HPM_P1;HPM_P2
2022/10/28 00:00:13;;;;;;;42.25;25.57;;;;;;;6.40;99.29;100232.84;4556795;76;21043;-85
2022/10/28 00:06:21;;;;;;;49.42;25.62;;;;;;;6.23;99.16;100238.25;4559985;76;21968;-84
2022/10/28 00:12:23;;;;;;;41.65;24.27;;;;;;;6.34;100.00;100236.84;4555339;76;20960;-83
2022/10/28 00:18:28;;;;;;;38.75;26.00;;;;;;;6.26;99.27;100232.95;4556340;76;21039;-84
2022/10/28 00:24:30;;;;;;;45.00;26.33;;;;;;;6.13;99.29;100223.03;4547695;76;20960;-84
2022/10/28 00:30:31;;;;;;;38.58;21.45;;;;;;;6.05;99.68;100216.20;4557794;76;20992;-84
2022/10/28 00:36:36;;;;;;;42.85;21.02;;;;;;;6.09;100.00;100211.75;4562753;76;20964;-85
2022/10/28 00:42:38;;;;;;;45.52;24.67;;;;;;;6.08;100.00;100208.77;4554620;76;20963;-84
2022/10/28 00:48:42;;;;;;;44.83;24.57;;;;;;;6.05;99.55;100197.98;4550497;76;20955;-83
2022/10/28 00:54:44;;;;;;;43.50;25.88;;;;;;;5.95;99.70;100182.53;4553352;76;20999;-84
2022/10/28 01:00:46;;;;;;;41.55;23.12;;;;;;;5.77;99.01;100182.99;4562417;76;21058;-85
2022/10/28 01:06:48;;;;;;;41.92;23.12;;;;;;;5.68;100.00;100188.15;4468070;77;22012;-84
2022/10/28 01:13:30;;;;;;;53.65;26.68;;;;;;;5.83;100.00;100184.48;4412536;78;21385;-84
2022/10/28 01:19:56;;;;;;;42.53;23.62;;;;;;;5.74;99.78;100177.38;4486844;76;21019;-84
2022/10/28 01:26:20;;;;;;;47.88;24.37;;;;;;;5.72;100.00;100174.98;4540727;76;21581;-83
2022/10/28 01:32:32;;;;;;;44.58;23.98;;;;;;;5.56;99.43;100169.72;4545315;76;21015;-84
2022/10/28 01:38:45;;;;;;;43.48;24.30;;;;;;;5.46;99.78;100165.13;4544391;77;21004;-84
2022/10/28 01:45:23;;;;;;;47.48;24.43;;;;;;;5.35;100.00;100157.81;4551176;76;21019;-84
2022/10/28 01:51:33;;;;;;;44.63;23.77;;;;;;;5.29;99.79;100148.20;4552076;76;21342;-84
2022/10/28 01:57:37;;;;;;;48.10;24.25;;;;;;;5.10;99.67;100150.88;4558441;76;22331;-83
2022/10/28 02:03:38;;;;;;;44.15;23.12;;;;;;;5.07;100.00;100144.72;4545718;76;21088;-84
2022/10/28 02:10:01;;;;;;;57.30;27.70;;;;;;;5.09;100.00;100141.16;4536314;76;21539;-83
2022/10/28 02:16:27;;;;;;;50.43;27.15;;;;;;;5.13;100.00;100129.91;4556407;76;21048;-84
2022/10/28 02:22:51;;;;;;;51.75;26.93;;;;;;;5.09;100.00;100120.80;4552821;76;20988;-84
2022/10/28 02:29:25;;;;;;;49.10;25.27;;;;;;;5.10;100.00;100113.70;4543591;76;21024;-84
2022/10/28 02:35:37;;;;;;;47.23;24.85;;;;;;;5.22;100.00;100116.62;4530154;76;21341;-85
2022/10/28 02:41:51;;;;;;;47.23;23.52;;;;;;;5.35;100.00;100107.59;4574922;77;20993;-84
2022/10/28 02:48:05;;;;;;;43.15;23.77;;;;;;;5.47;100.00;100104.25;4570896;76;20959;-83
2022/10/28 02:54:15;;;;;;;50.03;26.65;;;;;;;5.41;100.00;100098.18;4463865;76;35296;-83
2022/10/28 03:00:23;;;;;;;42.40;23.57;;;;;;;5.32;100.00;100099.26;4419835;78;21011;-84
2022/10/28 03:06:24;;;;;;;44.95;22.55;;;;;;;5.16;100.00;100092.09;4420019;79;21018;-84
2022/10/28 03:12:26;;;;;;;44.20;23.73;;;;;;;5.05;100.00;100091.30;4412883;79;20975;-83
2022/10/28 03:18:27;;;;;;;46.75;24.77;;;;;;;5.02;100.00;100090.02;4420168;79;20999;-84
2022/10/28 03:24:29;;;;;;;40.55;22.05;;;;;;;4.93;100.00;100085.66;4319732;79;23729;-83
2022/10/28 03:30:37;;;;;;;45.23;24.70;;;;;;;4.79;100.00;100086.53;4282596;80;21035;-84
2022/10/28 03:36:48;;;;;;;57.53;24.87;;;;;;;4.85;100.00;100089.36;4348782;80;21039;-84
2022/10/28 03:42:50;;;;;;;59.00;26.65;;;;;;;4.76;100.00;100108.08;4346924;80;21957;-83
2022/10/28 03:48:51;;;;;;;48.65;26.25;;;;;;;4.73;100.00;100103.25;4306054;80;20977;-83
2022/10/28 03:54:53;;;;;;;57.98;28.73;;;;;;;4.64;100.00;100092.91;4298131;80;21036;-84
2022/10/28 04:00:55;;;;;;;46.50;23.50;;;;;;;4.74;100.00;100085.30;4247484;82;21015;-84
2022/10/28 04:07:17;;;;;;;44.58;23.95;;;;;;;4.79;100.00;100087.89;4297312;80;21047;-83
2022/10/28 04:13:21;;;;;;;42.85;23.87;;;;;;;4.72;100.00;100075.89;4247219;82;21063;-84
2022/10/28 04:19:30;;;;;;;55.10;26.87;;;;;;;4.82;100.00;100070.21;4242677;82;21023;-83
2022/10/28 04:25:31;;;;;;;51.23;28.17;;;;;;;4.94;100.00;100077.75;4238105;82;21027;-84
2022/10/28 04:31:35;;;;;;;60.65;28.25;;;;;;;5.01;100.00;100076.77;4253597;82;21035;-85
2022/10/28 04:37:37;;;;;;;57.85;28.80;;;;;;;4.91;100.00;100065.62;4246862;81;21078;-84
2022/10/28 04:43:44;;;;;;;52.88;25.85;;;;;;;4.79;100.00;100058.63;4225025;82;21099;-84
2022/10/28 04:49:47;;;;;;;53.50;24.98;;;;;;;4.62;100.00;100036.81;4141498;84;21717;-84
2022/10/28 04:55:48;;;;;;;58.10;27.55;;;;;;;4.53;100.00;100048.97;4245231;82;20988;-84
2022/10/28 05:01:49;;;;;;;56.45;26.75;;;;;;;4.53;100.00;100046.27;4246058;82;21053;-84
2022/10/28 05:07:51;;;;;;;57.33;28.95;;;;;;;4.51;100.00;100058.55;4224480;81;21017;-83
2022/10/28 05:13:52;;;;;;;56.95;26.48;;;;;;;4.40;100.00;100031.44;4201150;83;21020;-84
2022/10/28 05:26:45;;;;;;;51.42;25.35;;;;;;;4.29;100.00;100047.70;4170607;82;21095;-83
2022/10/28 05:32:46;;;;;;;59.65;28.40;;;;;;;4.15;100.00;100045.61;4188602;82;20998;-84
2022/10/28 05:38:48;;;;;;;63.65;29.60;;;;;;;4.09;100.00;100051.68;4199533;83;21069;-84
2022/10/28 05:44:49;;;;;;;46.73;23.27;;;;;;;4.07;100.00;100042.27;4181186;82;21542;-84
2022/10/28 05:50:51;;;;;;;62.33;26.00;;;;;;;4.05;100.00;100046.64;4174882;83;21278;-84
2022/10/28 05:56:52;;;;;;;65.12;28.83;;;;;;;4.01;100.00;100046.20;4188963;83;21517;-84
2022/10/28 06:03:11;;;;;;;56.75;26.68;;;;;;;3.98;100.00;100048.14;4183808;83;21021;-84
2022/10/28 06:09:12;;;;;;;67.72;26.90;;;;;;;4.11;100.00;100044.59;4262986;80;21000;-84
2022/10/28 06:15:14;;;;;;;61.75;28.02;;;;;;;4.29;100.00;100041.70;4317793;80;21090;-84
2022/10/28 06:21:21;;;;;;;64.75;28.15;;;;;;;4.37;100.00;100045.61;4348017;77;72519;-85
2022/10/28 06:27:22;;;;;;;57.13;26.77;;;;;;;4.52;100.00;100049.28;4400398;79;20991;-84
2022/10/28 06:33:25;;;;;;;54.48;26.68;;;;;;;4.71;100.00;100041.17;4392359;79;20965;-84
2022/10/28 06:39:55;;;;;;;55.20;28.27;;;;;;;4.94;100.00;100037.05;4417151;79;21605;-84
2022/10/28 06:47:04;;;;;;;75.65;43.95;;;;;;;5.21;100.00;100036.85;4269446;79;21015;-84
2022/10/28 06:53:32;;;;;;;73.83;34.90;;;;;;;5.46;100.00;100046.44;4223988;83;21050;-85
2022/10/28 06:59:42;;;;;;;59.40;34.13;;;;;;;5.67;100.00;100045.30;4320002;80;21034;-84
2022/10/28 07:05:49;;;;;;;63.50;33.38;;;;;;;5.99;100.00;100050.30;4270741;82;20952;-84
2022/10/28 07:11:50;;;;;;;70.10;36.25;;;;;;;6.29;100.00;100054.23;4365910;79;20996;-84
2022/10/28 07:18:00;;;;;;;55.63;33.98;;;;;;;6.84;100.00;100045.33;4360754;80;20995;-84
2022/10/28 07:24:03;;;;;;;69.35;38.88;;;;;;;7.32;100.00;100054.75;4360203;79;20983;-84
2022/10/28 07:30:08;;;;;;;62.60;36.48;;;;;;;7.82;100.00;100046.59;4356490;80;21530;-83
2022/10/28 07:36:10;;;;;;;42.45;29.30;;;;;;;8.27;100.00;100042.09;4363654;80;21481;-84
2022/10/28 07:42:11;;;;;;;33.65;21.48;;;;;;;8.75;100.00;100056.50;4368785;78;21919;-85
2022/10/28 07:48:21;;;;;;;43.10;23.98;;;;;;;9.12;100.00;100056.23;4370520;80;21542;-86
2022/10/28 07:54:22;;;;;;;33.60;21.25;;;;;;;9.67;100.00;100062.52;4371485;79;21070;-85
2022/10/28 08:01:07;;;;;;;38.70;20.02;;;;;;;10.11;100.00;100057.47;4376374;80;21062;-85
2022/10/28 08:07:12;;;;;;;31.57;20.25;;;;;;;10.86;100.00;100058.41;4359551;80;21082;-84
2022/10/28 08:13:39;;;;;;;29.72;19.50;;;;;;;11.73;100.00;100048.09;4344485;80;21039;-84
2022/10/28 08:20:18;;;;;;;36.00;20.37;;;;;;;12.55;100.00;100041.22;4326631;80;21011;-88
2022/10/28 08:26:20;;;;;;;47.13;23.65;;;;;;;13.26;100.00;100052.97;4331844;80;21266;-85
2022/10/28 08:39:03;;;;;;;40.15;22.67;;;;;;;14.81;100.00;100037.48;4344131;78;21029;-85
2022/10/28 08:45:50;;;;;;;37.58;22.62;;;;;;;15.64;99.56;100040.80;4343106;80;21011;-85
2022/10/28 08:52:24;;;;;;;34.40;18.35;;;;;;;16.35;97.70;100035.70;4032981;86;21514;-86
2022/10/28 09:33:20;;;;;;;20.52;13.38;;;;;;;19.60;88.23;100020.21;4056102;86;21618;-86
2022/10/28 09:46:23;;;;;;;20.53;14.77;;;;;;;20.23;85.62;100018.20;4343828;80;21043;-86
2022/10/28 09:59:49;;;;;;;20.55;12.88;;;;;;;21.23;84.08;100008.89;4144300;83;21012;-87
2022/10/28 10:20:11;;;;;;;29.12;19.10;;;;;;;21.52;79.49;99998.84;4027454;86;21070;-86
2022/10/28 10:26:35;;;;;;;23.30;13.50;;;;;;;21.58;77.83;99990.17;4086125;85;21031;-86
2022/10/28 10:53:38;;;;;;;16.85;11.08;;;;;;;20.75;76.74;99981.17;4198203;82;20947;-86
2022/10/28 11:00:33;;;;;;;23.47;14.25;;;;;;;20.73;76.87;99969.66;4217499;82;21542;-86
2022/10/28 11:13:35;;;;;;;33.48;21.82;;;;;;;21.15;76.19;99963.47;4226511;82;21085;-86
2022/10/28 11:19:44;;;;;;;28.32;17.45;;;;;;;21.18;74.69;99963.42;4226127;82;21034;-85
2022/10/28 11:33:08;;;;;;;27.32;15.30;;;;;;;20.82;74.28;99952.63;4124305;84;21074;-85
2022/10/28 11:54:07;;;;;;;23.20;11.22;;;;;;;20.02;74.68;99946.13;4061726;85;21042;-86
2022/10/28 12:00:28;;;;;;;14.00;9.23;;;;;;;20.01;74.45;99945.96;4125810;84;21069;-86
2022/10/28 12:20:37;;;;;;;13.78;7.90;;;;;;;19.97;75.01;99932.69;4161835;83;21038;-86
2022/10/28 13:10:30;;;;;;;13.80;11.12;;;;;;;20.17;74.93;99896.93;3864373;90;22039;-86
2022/10/28 13:23:49;;;;;;;18.00;10.55;;;;;;;20.04;75.03;99891.73;4121157;84;21511;-86
2022/10/28 13:30:21;;;;;;;23.75;10.90;;;;;;;19.86;75.33;99893.92;4093696;83;21080;-86
2022/10/28 13:50:49;;;;;;;18.02;10.40;;;;;;;19.84;76.23;99883.82;4098361;83;21050;-85
2022/10/28 13:56:50;;;;;;;18.75;10.08;;;;;;;19.81;76.76;99884.66;4177144;83;21019;-86
2022/10/28 14:03:04;;;;;;;16.50;10.03;;;;;;;19.70;76.83;99887.39;4174157;82;21052;-86
2022/10/28 14:09:22;;;;;;;15.08;8.85;;;;;;;19.60;76.93;99886.90;4090628;85;21510;-86
2022/10/28 14:22:15;;;;;;;13.45;8.45;;;;;;;19.36;77.76;99879.02;4178622;83;21041;-86
2022/10/28 14:28:39;;;;;;;14.38;8.30;;;;;;;19.34;77.84;99875.09;4271645;83;21017;-86
2022/10/28 14:49:31;;;;;;;15.03;8.28;;;;;;;19.10;78.48;99857.45;3944645;88;21146;-84
2022/10/28 14:55:35;;;;;;;17.45;9.98;;;;;;;18.85;78.75;99865.20;3931241;89;21519;-86
2022/10/28 15:16:30;;;;;;;17.02;9.50;;;;;;;18.28;79.95;99861.23;3967279;87;21138;-86
2022/10/28 15:36:20;;;;;;;17.85;10.03;;;;;;;17.56;81.82;99857.81;4167990;84;21479;-86
2022/10/28 15:57:07;;;;;;;29.52;18.12;;;;;;;16.82;83.07;99849.63;4073300;85;21154;-84
2022/10/28 16:03:27;;;;;;;37.20;20.97;;;;;;;16.39;83.44;99852.16;4080515;85;21538;-84
2022/10/28 16:09:52;;;;;;;29.15;20.02;;;;;;;16.08;84.49;99854.27;4110977;85;21085;-85
2022/10/28 16:16:45;;;;;;;28.55;16.23;;;;;;;15.92;85.31;99855.78;4102052;85;21092;-84
2022/10/28 16:23:44;;;;;;;54.08;33.15;;;;;;;15.78;85.80;99862.64;3934456;84;21457;-85
2022/10/28 16:30:20;;;;;;;44.95;24.15;;;;;;;15.50;86.49;99863.31;4169428;83;21032;-84
2022/10/28 16:36:38;;;;;;;43.60;24.32;;;;;;;15.33;87.20;99864.75;4171886;83;21696;-85
2022/10/28 16:43:00;;;;;;;49.60;27.32;;;;;;;15.15;87.49;99868.00;4147592;83;20997;-84
2022/10/28 16:49:01;;;;;;;33.75;20.85;;;;;;;15.02;88.23;99871.44;4160328;83;21051;-85
2022/10/28 16:55:18;;;;;;;30.32;19.12;;;;;;;14.87;88.51;99872.52;4173300;83;21021;-84
2022/10/28 17:01:21;;;;;;;29.48;17.67;;;;;;;14.72;89.07;99871.60;4160701;83;21702;-84
2022/10/28 17:14:36;;;;;;;33.40;17.77;;;;;;;14.37;89.71;99879.56;4140654;83;21010;-84
2022/10/28 17:21:03;;;;;;;35.85;20.10;;;;;;;14.20;90.09;99879.54;4192346;81;21057;-84
2022/10/28 17:27:14;;;;;;;28.87;14.53;;;;;;;14.00;90.45;99878.14;4137987;83;21562;-84
2022/10/28 17:39:44;;;;;;;38.48;23.18;;;;;;;13.70;91.44;99881.52;4147300;84;21052;-84
2022/10/28 17:46:12;;;;;;;36.15;22.67;;;;;;;13.63;92.01;99876.51;4177537;84;21076;-84
2022/10/28 17:52:18;;;;;;;38.35;20.88;;;;;;;13.54;92.39;99878.76;4142010;84;21073;-84
2022/10/28 17:58:24;;;;;;;39.13;22.58;;;;;;;13.41;92.52;99884.27;4181386;83;21077;-83
2022/10/28 18:04:25;;;;;;;41.77;24.33;;;;;;;13.30;92.83;99887.45;4178717;83;21078;-85
2022/10/28 18:10:30;;;;;;;41.92;23.55;;;;;;;13.17;93.51;99874.50;4176602;84;21576;-84
2022/10/28 18:16:39;;;;;;;38.23;22.55;;;;;;;13.11;94.03;99868.34;4152161;84;21037;-84
2022/10/28 18:22:41;;;;;;;38.65;23.52;;;;;;;13.04;94.07;99863.53;4114969;84;21051;-84
2022/10/28 18:28:44;;;;;;;41.90;24.35;;;;;;;12.90;94.49;99863.86;4063210;85;21129;-85
2022/10/28 18:35:10;;;;;;;44.63;26.40;;;;;;;12.83;94.87;99858.23;4065529;85;21388;-84
2022/10/28 18:41:23;;;;;;;38.98;22.85;;;;;;;12.77;95.36;99855.59;4061571;85;21574;-85
2022/10/28 18:47:43;;;;;;;44.73;23.60;;;;;;;12.70;95.68;99842.53;4005674;85;21557;-84
2022/10/28 18:53:47;;;;;;;41.83;25.72;;;;;;;12.65;96.08;99850.50;4062042;83;9999770;-84
2022/10/28 19:00:10;;;;;;;42.93;23.98;;;;;;;12.52;95.84;99847.76;4165472;83;21554;-84
2022/10/28 19:06:14;;;;;;;40.08;25.40;;;;;;;12.42;96.74;99851.68;3995642;86;21029;-84
2022/10/28 19:12:18;;;;;;;39.65;24.25;;;;;;;12.36;97.05;99855.33;4059082;85;21070;-84
2022/10/28 19:18:27;;;;;;;51.10;28.98;;;;;;;12.27;97.26;99851.23;4060819;85;21027;-83
2022/10/28 19:24:31;;;;;;;46.35;29.52;;;;;;;12.06;96.64;99847.52;4065157;85;21019;-84
2022/10/28 19:37:02;;;;;;;40.88;25.40;;;;;;;11.94;98.36;99849.06;4061956;87;21413;-83
2022/10/28 19:43:06;;;;;;;51.25;31.12;;;;;;;11.94;98.61;99858.66;4164632;85;21518;-83
2022/10/28 19:49:23;;;;;;;52.03;33.15;;;;;;;11.82;97.97;99859.39;4141153;85;21033;-84
2022/10/28 19:55:26;;;;;;;55.17;32.55;;;;;;;11.67;98.20;99859.68;4087993;85;21015;-83
2022/10/28 20:01:32;;;;;;;56.00;34.80;;;;;;;11.52;99.06;99858.35;4060279;85;21083;-84
2022/10/28 20:07:44;;;;;;;57.67;36.97;;;;;;;11.45;99.23;99860.95;4077929;85;21079;-85
2022/10/28 20:14:00;;;;;;;50.95;33.05;;;;;;;11.36;99.44;99863.89;4003334;87;21033;-84
2022/10/28 20:20:04;;;;;;;56.30;34.15;;;;;;;11.28;100.00;99866.27;3932557;89;21105;-84
2022/10/28 20:26:07;;;;;;;47.17;31.68;;;;;;;11.26;100.00;99869.92;4149257;84;21050;-83
2022/10/28 20:32:10;;;;;;;47.38;32.00;;;;;;;11.26;100.00;99871.89;4174959;84;21037;-83
2022/10/28 20:38:14;;;;;;;51.88;33.67;;;;;;;11.29;100.00;99872.55;4152420;86;21508;-83
2022/10/28 20:44:17;;;;;;;53.58;31.65;;;;;;;11.23;100.00;99871.24;4254981;82;20994;-83
2022/10/28 20:50:19;;;;;;;48.00;32.45;;;;;;;11.20;100.00;99872.73;4247204;82;21589;-83
2022/10/28 20:56:26;;;;;;;54.65;34.78;;;;;;;11.13;100.00;99875.89;4231384;82;20973;-83
2022/10/28 21:02:28;;;;;;;58.38;34.48;;;;;;;11.09;100.00;99882.09;4284168;82;21040;-83
2022/10/28 21:08:30;;;;;;;62.83;37.73;;;;;;;10.93;100.00;99876.44;4241945;82;21444;-83
2022/10/28 21:14:31;;;;;;;65.25;38.98;;;;;;;10.84;100.00;99877.98;4211114;82;21006;-82
2022/10/28 21:20:42;;;;;;;69.77;41.88;;;;;;;10.82;100.00;99869.31;4265563;82;21052;-83
2022/10/28 21:26:44;;;;;;;66.80;41.42;;;;;;;10.78;100.00;99871.75;4202685;82;21500;-83
2022/10/28 21:32:46;;;;;;;58.13;38.63;;;;;;;10.68;100.00;99862.13;4251228;83;21029;-83
2022/10/28 21:38:47;;;;;;;60.70;38.92;;;;;;;10.61;100.00;99861.16;4206754;83;21022;-83
2022/10/28 21:44:48;;;;;;;58.68;36.77;;;;;;;10.55;100.00;99856.55;4242585;83;21597;-83
2022/10/28 21:50:54;;;;;;;58.85;37.05;;;;;;;10.54;100.00;99858.27;4204277;83;22003;-83
2022/10/28 21:56:55;;;;;;;59.65;37.55;;;;;;;10.48;100.00;99848.70;4198621;83;21052;-82
2022/10/28 22:03:00;;;;;;;58.98;35.73;;;;;;;10.41;100.00;99852.09;4190013;83;20979;-84
2022/10/28 22:09:02;;;;;;;54.27;35.48;;;;;;;10.39;100.00;99845.36;4198627;83;21600;-83
2022/10/28 22:15:05;;;;;;;58.23;37.25;;;;;;;10.39;100.00;99840.69;4207876;83;21561;-83
2022/10/28 22:21:13;;;;;;;61.85;36.90;;;;;;;10.39;100.00;99826.20;4207939;83;21017;-82
2022/10/28 22:27:15;;;;;;;50.23;33.23;;;;;;;10.36;100.00;99824.17;4165418;83;21027;-83
2022/10/28 22:33:17;;;;;;;56.58;34.73;;;;;;;10.37;100.00;99829.29;4211067;82;21537;-85
2022/10/28 22:39:19;;;;;;;55.35;33.65;;;;;;;10.32;100.00;99820.56;4164719;83;20955;-82
2022/10/28 22:45:20;;;;;;;52.45;34.13;;;;;;;10.23;100.00;99816.63;4171062;83;21051;-82
2022/10/28 22:51:22;;;;;;;50.17;30.48;;;;;;;10.15;100.00;99809.97;4291203;83;20973;-83
2022/10/28 22:57:27;;;;;;;50.88;32.38;;;;;;;10.14;100.00;99817.37;4278499;82;21454;-83
2022/10/28 23:03:31;;;;;;;43.63;28.75;;;;;;;10.03;100.00;99816.27;4249153;83;22000;-83
2022/10/28 23:09:35;;;;;;;;;;;;;;;9.97;100.00;99814.14;4173737;82;21069;-83
2022/10/28 23:15:47;;;;;;;38.35;25.48;;;;;;;10.02;100.00;99817.99;4234834;83;20821;-82
2022/10/28 23:22:14;;;;;;;45.03;30.08;;;;;;;9.93;100.00;99814.03;4178370;83;21074;-83
2022/10/28 23:28:15;;;;;;;50.67;31.73;;;;;;;9.88;100.00;99812.92;4209534;83;21029;-82
2022/10/28 23:34:18;;;;;;;59.75;33.18;;;;;;;9.75;100.00;99809.24;4231178;82;21413;-83
2022/10/28 23:47:25;;;;;;;52.45;31.35;;;;;;;9.50;100.00;99792.98;4220528;82;21101;-82
2022/10/28 23:53:28;;;;;;;43.98;28.65;;;;;;;9.48;100.00;99791.71;4239984;82;21967;-82
2022/10/28 23:59:30;;;;;;;49.27;26.17;;;;;;;9.49;100.00;99790.56;4303635;82;21889;-82
